Time;durP1;ratioP1;P1;durP2;ratioP2;P2;SDS_P1;SDS_P2;PMS_P1;PMS_P2;Temp;Humidity;BMP_temperature;BMP_pressure;BME280_temperature;BME280_humidity;BME280_pressure;Samples;Min_cycle;Max_cycle;Signal;HPM_P1;HPM_P2
2022/12/26 00:00:36;;;;;;;8.63;6.28;;;;;;;0.24;100.00;100546.10;1661739;85;21703;-78
2022/12/26 00:03:03;;;;;;;8.03;6.08;;;;;;;0.21;100.00;100549.16;1654913;85;21125;-79
2022/12/26 00:05:36;;;;;;;8.83;6.30;;;;;;;0.17;100.00;100545.18;1645532;86;21597;-78
2022/12/26 00:08:03;;;;;;;7.28;5.67;;;;;;;0.13;100.00;100546.56;1672611;86;21020;-78
2022/12/26 00:10:30;;;;;;;8.15;5.28;;;;;;;0.11;100.00;100549.91;1683883;84;21141;-78
2022/12/26 00:12:58;;;;;;;7.92;6.17;;;;;;;0.16;100.00;100553.39;1675279;84;21051;-78
2022/12/26 00:15:25;;;;;;;9.13;6.17;;;;;;;0.18;100.00;100557.53;1658894;85;21137;-78
2022/12/26 00:17:53;;;;;;;10.23;6.15;;;;;;;0.20;100.00;100558.70;1652782;85;21057;-78
2022/12/26 00:20:21;;;;;;;8.93;6.92;;;;;;;0.18;100.00;100564.22;1666420;85;21778;-78
2022/12/26 00:22:47;;;;;;;;;;;;;;;0.16;100.00;100558.23;1660663;85;21069;-78
2022/12/26 00:25:14;;;;;;;7.37;5.67;;;;;;;0.23;100.00;100555.64;1654034;85;20170;-78
2022/12/26 00:27:41;;;;;;;7.60;5.80;;;;;;;0.25;100.00;100554.44;1653190;85;21042;-78
2022/12/26 00:30:09;;;;;;;8.85;6.47;;;;;;;0.28;100.00;100551.92;1687042;84;21081;-79
2022/12/26 00:32:36;;;;;;;9.50;6.70;;;;;;;0.31;100.00;100555.05;1674404;84;21062;-78
2022/12/26 00:35:03;;;;;;;8.20;5.70;;;;;;;0.36;100.00;100562.00;1677285;84;21636;-78
2022/12/26 00:37:30;;;;;;;8.60;6.05;;;;;;;0.44;100.00;100559.74;1687745;84;21062;-78
2022/12/26 00:39:56;;;;;;;8.48;6.00;;;;;;;0.43;100.00;100554.05;1653438;85;21017;-78
2022/12/26 00:42:22;;;;;;;7.87;6.60;;;;;;;0.39;100.00;100556.27;1659261;85;21573;-78
2022/12/26 00:44:49;;;;;;;8.05;6.20;;;;;;;0.30;100.00;100564.09;1674248;84;22245;-78
2022/12/26 00:47:16;;;;;;;8.75;5.97;;;;;;;0.25;100.00;100558.45;1675479;84;21129;-78
2022/12/26 00:49:42;;;;;;;8.53;6.78;;;;;;;0.31;100.00;100563.09;1678793;84;21052;-78
2022/12/26 00:52:08;;;;;;;9.43;6.10;;;;;;;0.36;100.00;100559.33;1663576;85;21062;-79
2022/12/26 00:54:35;;;;;;;;;;;;;;;0.34;100.00;100569.91;1666930;84;21827;-79
2022/12/26 00:57:01;;;;;;;8.83;6.30;;;;;;;0.33;100.00;100562.89;1660817;86;20715;-78
2022/12/26 00:59:28;;;;;;;;;;;;;;;0.33;100.00;100563.72;1665490;86;21079;-78
2022/12/26 01:01:54;;;;;;;8.70;6.17;;;;;;;0.37;100.00;100563.67;1661480;85;20129;-78
2022/12/26 01:04:21;;;;;;;;;;;;;;;0.33;100.00;100551.67;1667844;84;21609;-78
2022/12/26 01:06:49;;;;;;;;;;;;;;;0.25;100.00;100559.80;1665219;85;20385;-78
2022/12/26 01:09:15;;;;;;;9.30;6.33;;;;;;;0.18;100.00;100556.19;1662013;86;20198;-78
2022/12/26 01:11:42;;;;;;;9.58;7.28;;;;;;;0.18;100.00;100555.39;1666497;85;21104;-78
2022/12/26 01:14:13;;;;;;;9.25;7.12;;;;;;;0.23;100.00;100544.94;1666215;85;21062;-78
2022/12/26 01:16:40;;;;;;;10.82;6.60;;;;;;;0.26;100.00;100542.72;1659771;86;22161;-78
2022/12/26 01:19:06;;;;;;;9.20;6.62;;;;;;;0.23;100.00;100550.29;1660854;86;21162;-78
2022/12/26 01:21:32;;;;;;;8.55;6.47;;;;;;;0.20;100.00;100547.98;1665009;86;21098;-78
2022/12/26 01:23:59;;;;;;;9.23;7.20;;;;;;;0.20;100.00;100550.66;1637043;85;21065;-78
2022/12/26 01:26:26;;;;;;;11.25;6.83;;;;;;;0.20;100.00;100550.66;1666177;85;21416;-76
2022/12/26 01:28:52;;;;;;;10.18;7.65;;;;;;;0.19;100.00;100550.33;1663582;86;21070;-76
2022/12/26 01:31:19;;;;;;;8.83;7.22;;;;;;;0.16;100.00;100554.22;1664441;85;21142;-76
2022/12/26 01:33:46;;;;;;;10.25;7.10;;;;;;;0.18;100.00;100553.52;1669039;84;21039;-77
2022/12/26 01:36:13;;;;;;;10.13;7.55;;;;;;;0.25;100.00;100561.12;1663197;85;21075;-77
2022/12/26 01:38:41;;;;;;;12.43;8.45;;;;;;;0.31;100.00;100557.73;1658648;86;21082;-76
2022/12/26 01:41:16;;;;;;;9.70;7.15;;;;;;;0.35;100.00;100555.52;1663695;86;21105;-77
2022/12/26 01:43:55;;;;;;;9.83;7.05;;;;;;;0.35;100.00;100553.67;1661564;84;21103;-77
2022/12/26 01:46:30;;;;;;;11.28;7.62;;;;;;;0.39;100.00;100551.45;1665621;85;21560;-77
2022/12/26 01:49:00;;;;;;;9.88;6.75;;;;;;;0.47;100.00;100548.14;1665808;86;21019;-77
2022/12/26 01:54:48;;;;;;;10.05;8.20;;;;;;;0.43;100.00;100545.52;1847180;77;23386;-65
2022/12/26 01:57:21;;;;;;;10.45;8.28;;;;;;;0.33;100.00;100550.83;1800283;78;21559;-68
2022/12/26 01:59:55;;;;;;;11.20;8.10;;;;;;;0.31;100.00;100553.72;1784416;78;21090;-68
2022/12/26 02:05:32;;;;;;;11.65;8.35;;;;;;;0.34;100.00;100549.32;1714921;82;21044;-68
2022/12/26 02:08:03;;;;;;;;;;;;;;;;;;;;;
2022/12/26 02:10:27;;;;;;;10.18;8.23;;;;;;;0.44;100.00;100549.86;1656921;85;21141;-68
2022/12/26 02:12:58;;;;;;;11.38;8.83;;;;;;;0.38;100.00;100539.91;1659758;84;21067;-68
2022/12/26 02:15:25;;;;;;;10.08;7.92;;;;;;;0.40;100.00;100538.36;1685134;84;21800;-68
2022/12/26 02:17:54;;;;;;;10.48;8.48;;;;;;;0.43;100.00;100536.64;1687578;84;21039;-68
2022/12/26 02:20:25;;;;;;;13.48;8.83;;;;;;;0.44;100.00;100540.48;1684677;84;21143;-68
2022/12/26 02:23:49;;;;;;;11.55;8.60;;;;;;;0.41;100.00;100549.41;1684413;84;21044;-68
2022/12/26 02:26:46;;;;;;;10.38;7.53;;;;;;;0.41;100.00;100544.05;1683460;84;21121;-68
2022/12/26 02:29:33;;;;;;;8.98;6.78;;;;;;;0.45;100.00;100544.00;1685977;84;21046;-68
2022/12/26 02:32:25;;;;;;;9.30;6.80;;;;;;;0.50;100.00;100543.75;1689983;84;21067;-68
2022/12/26 02:35:04;;;;;;;8.78;6.83;;;;;;;0.42;100.00;100537.18;1685955;84;21106;-68
2022/12/26 02:38:04;;;;;;;8.23;6.22;;;;;;;0.33;100.00;100543.63;1640405;85;21005;-67
2022/12/26 02:41:14;;;;;;;9.15;7.15;;;;;;;0.36;100.00;100530.37;1638258;87;21115;-68
2022/12/26 02:47:01;;;;;;;8.63;6.30;;;;;;;0.37;100.00;100530.20;1653403;85;21006;-67
2022/12/26 03:13:22;;;;;;;9.03;6.00;;;;;;;0.18;100.00;100523.26;1636905;86;21317;-67
2022/12/26 03:18:54;;;;;;;7.80;5.65;;;;;;;0.14;100.00;100528.16;1600728;88;21060;-67
2022/12/26 03:21:38;;;;;;;9.83;6.42;;;;;;;0.18;100.00;100524.59;1643553;87;21612;-67
2022/12/26 03:23:55;;;;;;;8.93;5.90;;;;;;;0.17;100.00;100532.30;1627874;87;21088;-67
2022/12/26 03:26:38;;;;;;;8.28;5.78;;;;;;;0.09;100.00;100519.83;1635926;87;21110;-67
2022/12/26 03:31:55;;;;;;;8.13;5.80;;;;;;;0.17;100.00;100537.14;1653810;85;20992;-67
2022/12/26 03:34:35;;;;;;;8.73;6.03;;;;;;;0.12;100.00;100540.03;1631763;86;21540;-68
2022/12/26 03:37:28;;;;;;;8.15;6.03;;;;;;;0.05;100.00;100535.09;1656999;85;20987;-67
2022/12/26 04:19:30;;;;;;;8.93;6.28;;;;;;;0.57;100.00;100545.16;1647228;85;21591;-65
2022/12/26 04:45:12;;;;;;;9.80;6.87;;;;;;;0.42;100.00;100553.25;1635588;86;21156;-65
2022/12/26 04:50:10;;;;;;;8.55;7.05;;;;;;;0.52;100.00;100561.49;1654402;85;21103;-67
2022/12/26 04:50:14;;;;;;;9.23;6.70;;;;;;;0.53;100.00;100564.50;1626475;86;21651;-67
2022/12/26 04:52:57;;;;;;;10.15;6.92;;;;;;;0.48;100.00;100563.72;1628498;85;21097;-67
2022/12/26 04:55:22;;;;;;;7.35;5.80;;;;;;;0.52;100.00;100573.55;1648481;85;21087;-67
2022/12/26 04:57:51;;;;;;;9.63;7.08;;;;;;;0.57;100.00;100575.17;1635561;86;22515;-67
2022/12/26 05:00:20;;;;;;;9.33;7.40;;;;;;;0.61;100.00;100575.09;1614532;87;21059;-67
2022/12/26 05:11:27;;;;;;;10.63;7.80;;;;;;;0.49;100.00;100586.81;1691068;84;21027;-67
2022/12/26 05:13:50;;;;;;;11.53;7.92;;;;;;;0.50;100.00;100590.63;1645890;85;21038;-67
2022/12/26 05:29:18;;;;;;;13.15;9.45;;;;;;;0.37;100.00;100600.34;1763773;80;21078;-67
2022/12/26 05:31:48;;;;;;;12.37;9.78;;;;;;;0.38;100.00;100600.17;1751549;81;21801;-67
2022/12/26 05:34:21;;;;;;;12.90;9.65;;;;;;;0.44;100.00;100599.92;1758924;81;21624;-67
2022/12/26 05:36:55;;;;;;;15.30;10.70;;;;;;;0.46;100.00;100594.69;1752060;81;21562;-67
2022/12/26 05:39:26;;;;;;;15.23;10.75;;;;;;;0.44;100.00;100602.60;1753562;80;21685;-67
2022/12/26 05:42:03;;;;;;;14.35;10.05;;;;;;;0.46;100.00;100597.38;1753111;81;21077;-67
2022/12/26 05:44:42;;;;;;;;;;;;;;;;;;;;;
2022/12/26 05:47:04;;;;;;;15.48;10.98;;;;;;;0.58;100.00;100600.92;1736161;81;21603;-67
2022/12/26 05:49:42;;;;;;;13.75;10.82;;;;;;;0.59;100.00;100605.28;1734863;81;21125;-67
2022/12/26 05:52:04;;;;;;;14.85;10.90;;;;;;;0.57;100.00;100597.41;1752606;81;21039;-67
2022/12/26 05:54:34;;;;;;;18.42;11.48;;;;;;;0.56;100.00;100595.77;1723749;81;21610;-67
2022/12/26 05:57:06;;;;;;;14.45;10.55;;;;;;;0.59;100.00;100598.58;1751629;80;20988;-67
2022/12/26 05:59:39;;;;;;;15.05;11.10;;;;;;;0.63;100.00;100591.33;1726461;83;21130;-67
2022/12/26 06:02:02;;;;;;;16.32;12.10;;;;;;;0.65;100.00;100602.68;1692213;84;21071;-67
2022/12/26 06:04:35;;;;;;;15.53;11.33;;;;;;;0.61;100.00;100594.69;1713230;83;21565;-67
2022/12/26 06:07:03;;;;;;;17.73;12.23;;;;;;;0.58;100.00;100588.88;1703065;82;21040;-67
2022/12/26 06:09:31;;;;;;;20.05;12.45;;;;;;;0.58;100.00;100594.23;1701422;83;21129;-67
2022/12/26 06:12:01;;;;;;;15.78;11.22;;;;;;;0.61;100.00;100595.19;1705202;84;21024;-67
2022/12/26 06:14:34;;;;;;;17.70;13.62;;;;;;;0.63;100.00;100589.16;1699146;83;21620;-67
2022/12/26 06:17:04;;;;;;;18.10;13.05;;;;;;;0.62;100.00;100587.48;1707158;82;21014;-67
2022/12/26 06:19:34;;;;;;;44.93;31.00;;;;;;;0.56;100.00;100582.38;1730624;82;21187;-68
2022/12/26 06:22:02;;;;;;;31.85;23.77;;;;;;;0.50;100.00;100583.94;1707116;82;21026;-67
2022/12/26 06:24:31;;;;;;;20.95;15.50;;;;;;;0.52;100.00;100587.78;1691689;84;21091;-67
2022/12/26 06:27:05;;;;;;;21.95;15.75;;;;;;;0.53;100.00;100588.11;1669674;85;21028;-67
2022/12/26 06:29:34;;;;;;;19.57;14.30;;;;;;;0.53;100.00;100588.62;1713226;83;21434;-67
2022/12/26 06:32:04;;;;;;;22.77;15.25;;;;;;;0.53;100.00;100588.11;1670461;85;21543;-67
2022/12/26 06:34:35;;;;;;;18.75;14.53;;;;;;;0.53;100.00;100581.92;1682770;84;21062;-67
2022/12/26 06:37:03;;;;;;;20.55;15.45;;;;;;;0.54;100.00;100579.54;1681573;85;21445;-67
2022/12/26 06:39:29;;;;;;;19.77;14.63;;;;;;;0.56;100.00;100584.22;1703404;83;21106;-67
2022/12/26 06:42:01;;;;;;;24.32;16.55;;;;;;;0.58;100.00;100588.88;1682387;84;21064;-67
2022/12/26 06:44:29;;;;;;;23.10;15.43;;;;;;;0.59;100.00;100590.54;1668103;83;21062;-66
2022/12/26 06:46:57;;;;;;;24.02;16.87;;;;;;;0.53;100.00;100585.94;1704914;83;21002;-66
2022/12/26 06:49:30;;;;;;;23.98;16.87;;;;;;;0.44;100.00;100590.05;1705922;83;21098;-67
2022/12/26 06:51:57;;;;;;;27.85;17.40;;;;;;;0.44;100.00;100585.19;1703733;84;21040;-67
2022/12/26 06:54:24;;;;;;;21.48;16.37;;;;;;;0.47;100.00;100585.65;1696969;83;21046;-67
2022/12/26 06:56:57;;;;;;;;;;;;;;;0.47;100.00;100576.27;1741039;82;21027;-67
2022/12/26 06:59:21;;;;;;;20.77;14.93;;;;;;;0.44;100.00;100573.97;1746852;82;20453;-67
2022/12/26 07:02:00;;;;;;;24.50;16.50;;;;;;;0.35;100.00;100582.30;1748069;82;20987;-67
2022/12/26 07:04:24;;;;;;;22.73;16.45;;;;;;;0.32;100.00;100569.28;1730874;82;21543;-68
2022/12/26 07:06:51;;;;;;;26.27;17.55;;;;;;;0.36;100.00;100567.36;1718680;82;21580;-69
2022/12/26 07:09:21;;;;;;;26.00;19.10;;;;;;;0.37;100.00;100559.66;1715206;83;20991;-68
2022/12/26 07:11:55;;;;;;;25.95;18.77;;;;;;;0.34;100.00;100565.89;1717669;83;21601;-69
2022/12/26 07:14:28;;;;;;;26.68;19.77;;;;;;;0.30;100.00;100560.58;1703834;82;21082;-69
2022/12/26 07:16:56;;;;;;;24.12;18.07;;;;;;;0.25;100.00;100557.65;1695456;83;21062;-69
2022/12/26 07:19:28;;;;;;;26.10;18.87;;;;;;;0.29;100.00;100557.58;1695246;83;21094;-69
2022/12/26 07:22:00;;;;;;;23.98;18.10;;;;;;;0.35;100.00;100551.50;1708879;83;21083;-69
2022/12/26 07:24:30;;;;;;;25.30;18.52;;;;;;;0.39;100.00;100556.27;1715457;82;21422;-69
2022/12/26 07:26:59;;;;;;;24.50;18.57;;;;;;;0.39;100.00;100546.09;1676996;84;21445;-69
2022/12/26 07:29:31;;;;;;;29.02;19.70;;;;;;;0.40;100.00;100542.37;1700573;83;21992;-68
2022/12/26 07:32:14;;;;;;;29.18;21.20;;;;;;;0.40;100.00;100546.39;1691432;83;21162;-68
2022/12/26 07:34:30;;;;;;;27.40;20.12;;;;;;;0.41;100.00;100542.20;1666771;85;21138;-69
2022/12/26 07:36:57;;;;;;;;;;;;;;;0.44;100.00;100543.67;1666615;85;21010;-68
2022/12/26 07:39:25;;;;;;;25.97;19.23;;;;;;;0.40;100.00;100547.23;1687312;83;20552;-71
2022/12/26 07:41:58;;;;;;;28.77;20.90;;;;;;;0.27;100.00;100552.42;1646720;84;21703;-71
2022/12/26 07:44:31;;;;;;;28.30;20.55;;;;;;;0.29;100.00;100554.39;1707133;82;21511;-71
2022/12/26 07:46:58;;;;;;;29.48;21.57;;;;;;;0.32;100.00;100554.02;1683111;84;21062;-71
2022/12/26 07:49:28;;;;;;;30.37;21.60;;;;;;;0.29;100.00;100547.70;1695211;84;21160;-70
2022/12/26 07:51:57;;;;;;;31.30;21.73;;;;;;;0.34;100.00;100560.03;1684622;83;21042;-71
2022/12/26 07:54:25;;;;;;;32.17;22.52;;;;;;;0.31;100.00;100555.05;1698249;83;21113;-71
2022/12/26 07:56:53;;;;;;;29.32;21.55;;;;;;;0.30;100.00;100560.08;1702533;84;21603;-71
2022/12/26 07:59:25;;;;;;;25.32;18.87;;;;;;;0.35;100.00;100564.89;1691555;83;21067;-70
2022/12/26 08:01:55;;;;;;;25.55;18.32;;;;;;;0.41;100.00;100560.95;1663564;84;21576;-70
2022/12/26 08:04:26;;;;;;;23.35;18.23;;;;;;;0.40;100.00;100556.61;1670487;83;21023;-69
2022/12/26 08:07:07;;;;;;;;;;;;;;;;;;;;;
2022/12/26 08:09:21;;;;;;;28.75;20.25;;;;;;;0.37;100.00;100561.50;1682045;85;21043;-70
2022/12/26 08:11:50;;;;;;;28.17;20.10;;;;;;;0.39;100.00;100559.48;1717062;83;21540;-69
2022/12/26 08:14:22;;;;;;;28.80;20.15;;;;;;;0.42;100.00;100563.13;1695251;84;21869;-70
2022/12/26 08:16:53;;;;;;;27.67;19.50;;;;;;;0.44;100.00;100557.90;1705772;83;21038;-72
2022/12/26 08:19:20;;;;;;;27.58;19.48;;;;;;;0.43;100.00;100564.27;1659013;83;22151;-71
2022/12/26 08:21:48;;;;;;;28.23;20.48;;;;;;;0.43;100.00;100565.61;1683691;83;20968;-71
2022/12/26 08:24:21;;;;;;;29.12;21.15;;;;;;;0.42;100.00;100566.64;1696460;83;21010;-72
2022/12/26 08:26:53;;;;;;;27.93;20.17;;;;;;;0.41;100.00;100560.95;1708256;82;21040;-71
2022/12/26 08:29:24;;;;;;;26.37;19.67;;;;;;;0.41;100.00;100554.77;1679903;84;21568;-71
2022/12/26 08:31:54;;;;;;;29.15;21.23;;;;;;;0.48;100.00;100561.03;1744566;80;20967;-72
2022/12/26 08:34:31;;;;;;;30.00;21.33;;;;;;;0.47;100.00;100564.22;1714465;80;21066;-71
2022/12/26 08:43:51;;;;;;;27.98;20.12;;;;;;;0.51;100.00;100552.62;1816648;78;22997;-70
2022/12/26 08:46:27;;;;;;;29.37;21.17;;;;;;;0.50;100.00;100567.02;1745890;81;21015;-70
2022/12/26 08:49:09;;;;;;;;;;;;;;;;;;;;;
2022/12/26 08:51:42;;;;;;;31.62;22.75;;;;;;;0.55;100.00;100567.81;1742782;81;21853;-70
2022/12/26 08:54:09;;;;;;;30.95;21.48;;;;;;;0.56;100.00;100560.94;1724679;80;21422;-71
2022/12/26 08:56:38;;;;;;;29.72;21.35;;;;;;;0.65;100.00;100558.47;1741910;81;21057;-69
2022/12/26 08:59:05;;;;;;;29.00;21.27;;;;;;;0.73;100.00;100562.38;1749058;81;21075;-71
2022/12/26 09:01:39;;;;;;;28.98;20.48;;;;;;;0.79;100.00;100559.45;1753247;81;21577;-70
2022/12/26 09:04:09;;;;;;;31.37;22.48;;;;;;;0.71;100.00;100554.22;1759594;80;21509;-72
2022/12/26 09:06:40;;;;;;;31.52;22.48;;;;;;;0.57;100.00;100550.52;1758395;81;21034;-70
2022/12/26 09:09:12;;;;;;;30.97;21.68;;;;;;;0.55;100.00;100543.70;1729892;80;21077;-69
2022/12/26 09:11:43;;;;;;;30.30;20.05;;;;;;;0.64;100.00;100535.89;1756166;81;21059;-71
2022/12/26 09:14:12;;;;;;;30.45;20.57;;;;;;;0.69;100.00;100546.36;1760200;80;21005;-70
2022/12/26 09:16:45;;;;;;;29.10;19.85;;;;;;;0.68;100.00;100539.33;1752837;81;21030;-70
2022/12/26 09:19:15;;;;;;;27.93;18.45;;;;;;;0.69;100.00;100533.46;1751447;80;21619;-72
2022/12/26 09:21:47;;;;;;;29.67;19.75;;;;;;;0.72;100.00;100527.72;1755382;81;21103;-73
2022/12/26 09:24:21;;;;;;;29.67;19.32;;;;;;;0.73;100.00;100520.84;1745090;80;21040;-70
2022/12/26 09:26:51;;;;;;;24.60;18.73;;;;;;;0.76;100.00;100516.95;1740968;81;21054;-71
2022/12/26 09:29:27;;;;;;;25.72;19.20;;;;;;;0.64;100.00;100509.09;1743338;81;21077;-72
2022/12/26 09:31:55;;;;;;;26.10;19.25;;;;;;;0.59;100.00;100512.33;1742633;81;21498;-71
2022/12/26 09:34:21;;;;;;;25.88;17.80;;;;;;;0.59;100.00;100507.48;1748271;80;21097;-72
2022/12/26 09:36:53;;;;;;;23.00;17.98;;;;;;;0.60;100.00;100511.83;1728597;81;21599;-67
2022/12/26 09:39:27;;;;;;;25.27;18.90;;;;;;;0.63;100.00;100517.64;1758416;78;21073;-68
2022/12/26 09:42:09;;;;;;;24.63;19.25;;;;;;;0.64;100.00;100507.76;1764735;79;21014;-69
2022/12/26 09:45:07;;;;;;;24.43;18.98;;;;;;;0.65;100.00;100510.23;1764700;80;21599;-68
2022/12/26 09:47:41;;;;;;;27.30;19.57;;;;;;;0.77;100.00;100512.75;1762910;81;21523;-69
2022/12/26 09:50:17;;;;;;;27.45;19.77;;;;;;;0.80;100.00;100512.88;1756837;81;20999;-70
2022/12/26 09:53:06;;;;;;;26.17;19.73;;;;;;;0.78;100.00;100512.25;1713726;83;20995;-68
2022/12/26 09:55:56;;;;;;;25.72;18.10;;;;;;;0.76;100.00;100507.06;1684851;83;21046;-67
2022/12/26 09:58:29;;;;;;;24.52;17.73;;;;;;;0.81;100.00;100507.34;1715658;82;20990;-68
2022/12/26 10:01:22;;;;;;;23.27;18.17;;;;;;;0.87;100.00;100509.75;1728395;81;21036;-68
2022/12/26 10:03:59;;;;;;;23.80;17.82;;;;;;;0.87;100.00;100509.25;1710994;81;21362;-68
2022/12/26 10:06:36;;;;;;;26.10;19.62;;;;;;;0.85;100.00;100509.93;1739839;81;21093;-69
2022/12/26 10:09:27;;;;;;;25.60;18.92;;;;;;;0.90;100.00;100506.18;1742995;81;21351;-69
2022/12/26 10:12:10;;;;;;;28.92;19.57;;;;;;;0.98;100.00;100510.59;1753801;81;21056;-68
2022/12/26 10:15:14;;;;;;;28.90;20.52;;;;;;;1.03;100.00;100510.83;1729602;80;21025;-69
2022/12/26 10:18:13;;;;;;;32.45;21.42;;;;;;;1.03;100.00;100514.05;1726796;83;21041;-70
2022/12/26 10:20:51;;;;;;;29.18;22.13;;;;;;;0.97;100.00;100513.78;1739563;81;21020;-70
2022/12/26 10:23:34;;;;;;;;;;;;;;;0.99;100.00;100509.58;1751725;81;21038;-69
2022/12/26 10:26:16;;;;;;;30.95;22.05;;;;;;;1.05;100.00;100502.11;1748212;81;20130;-70
2022/12/26 10:29:11;;;;;;;28.02;20.70;;;;;;;1.03;100.00;100500.11;1731779;80;20968;-70
2022/12/26 10:31:58;;;;;;;32.15;23.20;;;;;;;1.00;100.00;100484.41;1700426;82;21120;-71
2022/12/26 10:34:36;;;;;;;32.63;22.90;;;;;;;1.00;100.00;100477.70;1687900;83;21180;-69
2022/12/26 10:37:26;;;;;;;30.10;20.85;;;;;;;1.08;100.00;100474.91;1689677;82;21074;-69
2022/12/26 10:40:19;;;;;;;25.50;18.50;;;;;;;1.12;100.00;100472.16;1689961;82;21418;-68
2022/12/26 10:43:00;;;;;;;25.82;17.62;;;;;;;1.09;100.00;100465.01;1684322;84;21544;-69
2022/12/26 14:20:47;;;;;;;62.88;35.23;;;;;;;-1.20;100.00;100317.95;1795027;78;22464;-69
2022/12/26 14:23:38;;;;;;;54.25;34.27;;;;;;;-1.15;100.00;100318.25;1693249;83;21654;-70
2022/12/26 14:26:35;;;;;;;42.73;28.00;;;;;;;-0.92;100.00;100325.67;1698776;82;21522;-69
2022/12/26 14:29:28;;;;;;;32.85;22.70;;;;;;;-0.73;100.00;100327.81;1660155;85;21161;-70
2022/12/26 14:32:06;;;;;;;33.83;22.20;;;;;;;-0.57;100.00;100323.59;1726457;81;21097;-70
2022/12/26 14:34:56;;;;;;;34.33;22.98;;;;;;;-0.46;100.00;100315.61;1720688;81;21590;-70
2022/12/26 14:37:31;;;;;;;35.83;23.77;;;;;;;-0.36;100.00;100308.66;1727279;81;21066;-69
2022/12/26 14:40:25;;;;;;;35.85;22.40;;;;;;;-0.29;100.00;100310.89;1718334;81;21057;-69
2022/12/26 14:43:29;;;;;;;29.92;22.15;;;;;;;-0.23;100.00;100298.93;1710084;82;21289;-70
2022/12/26 14:45:56;;;;;;;37.95;24.05;;;;;;;-0.21;100.00;100304.91;1725359;82;21018;-69
2022/12/26 14:48:29;;;;;;;37.78;24.37;;;;;;;-0.22;100.00;100294.41;1726537;81;21074;-69
2022/12/26 14:51:07;;;;;;;35.13;23.45;;;;;;;-0.18;100.00;100299.71;1727194;81;21006;-69
2022/12/26 14:53:34;;;;;;;34.30;24.32;;;;;;;-0.12;100.00;100294.93;1720726;82;21106;-68
2022/12/26 14:56:09;;;;;;;32.53;22.67;;;;;;;-0.10;100.00;100298.23;1726438;81;21021;-69
2022/12/26 14:58:50;;;;;;;34.27;23.15;;;;;;;-0.14;100.00;100297.78;1711822;81;21671;-67
2022/12/26 15:01:25;;;;;;;36.10;24.67;;;;;;;-0.14;100.00;100299.13;1708944;83;21030;-67
2022/12/26 15:04:15;;;;;;;34.63;23.30;;;;;;;-0.10;100.00;100296.89;1730094;82;21110;-67
2022/12/26 15:07:19;;;;;;;33.45;22.85;;;;;;;-0.08;100.00;100302.41;1726750;81;21077;-70
2022/12/26 15:10:16;;;;;;;32.25;22.32;;;;;;;-0.08;100.00;100300.23;1720842;81;21077;-69
2022/12/26 15:12:57;;;;;;;33.40;23.25;;;;;;;-0.14;100.00;100288.42;1723423;83;21137;-69
2022/12/26 15:15:53;;;;;;;30.32;20.95;;;;;;;-0.12;100.00;100281.55;1699556;84;21137;-70
2022/12/26 15:19:00;;;;;;;29.80;21.05;;;;;;;-0.33;100.00;100225.34;1717420;81;21082;-69
2022/12/26 15:21:44;;;;;;;31.25;21.97;;;;;;;-0.11;100.00;100243.08;1709404;82;21050;-70
2022/12/26 15:24:43;;;;;;;32.28;23.90;;;;;;;-0.17;100.00;100233.94;1689607;84;21439;-69
2022/12/26 15:27:39;;;;;;;33.65;23.10;;;;;;;-0.17;100.00;100217.05;1709017;82;21079;-70
2022/12/26 15:30:23;;;;;;;30.15;22.02;;;;;;;-0.12;100.00;100206.63;1707053;83;21058;-72
2022/12/26 15:33:11;;;;;;;31.30;22.52;;;;;;;-0.14;100.00;100179.20;1698832;82;21058;-71
2022/12/26 15:35:51;;;;;;;30.72;21.77;;;;;;;-0.19;100.00;100192.34;1688952;82;21152;-73
2022/12/26 15:38:42;;;;;;;31.07;22.75;;;;;;;-0.21;100.00;100202.39;1681041;83;21070;-71
2022/12/26 15:41:32;;;;;;;31.70;22.07;;;;;;;-0.21;100.00;100197.05;1684177;83;20984;-71
2022/12/26 15:44:07;;;;;;;33.78;23.18;;;;;;;-0.18;100.00;100210.07;1727650;81;21181;-72
2022/12/26 15:46:37;;;;;;;35.10;23.30;;;;;;;-0.18;100.00;100234.16;1713228;82;21082;-72
2022/12/26 15:49:46;;;;;;;31.02;21.62;;;;;;;-0.21;100.00;100241.20;1705168;83;21070;-71
2022/12/26 15:52:41;;;;;;;33.92;22.42;;;;;;;-0.23;100.00;100243.25;1712519;82;21328;-71
2022/12/26 15:55:29;;;;;;;35.13;23.32;;;;;;;-0.17;100.00;100258.53;1712656;82;21904;-72
2022/12/26 15:58:07;;;;;;;28.60;20.27;;;;;;;-0.11;100.00;100257.26;1690234;83;21511;-72
2022/12/26 16:00:52;;;;;;;27.17;18.15;;;;;;;-0.12;100.00;100235.55;1687022;84;21455;-72
2022/12/26 16:03:46;;;;;;;27.65;19.35;;;;;;;-0.17;100.00;100242.48;1680310;83;21117;-71
2022/12/26 16:06:38;;;;;;;25.62;17.32;;;;;;;-0.17;100.00;100226.42;1712332;82;21074;-70
2022/12/26 16:09:25;;;;;;;22.75;16.27;;;;;;;-0.16;100.00;100224.08;1709777;82;21130;-71
2022/12/26 16:11:58;;;;;;;22.48;14.78;;;;;;;-0.15;100.00;100233.77;1720943;82;21038;-72
2022/12/26 16:14:29;;;;;;;20.30;14.93;;;;;;;-0.14;100.00;100233.56;1713367;82;21102;-72
2022/12/26 16:17:15;;;;;;;20.50;15.18;;;;;;;-0.16;100.00;100257.02;1708539;82;20944;-73
2022/12/26 16:19:45;;;;;;;21.30;15.48;;;;;;;-0.15;100.00;100274.74;1715172;82;21095;-69
2022/12/26 16:25:06;;;;;;;21.12;15.45;;;;;;;-0.07;100.00;100280.45;1713792;82;21462;-72
2022/12/26 16:27:35;;;;;;;21.25;15.63;;;;;;;-0.05;100.00;100278.44;1702348;82;21031;-72
2022/12/26 16:30:14;;;;;;;22.93;15.55;;;;;;;-0.06;100.00;100276.77;1717351;82;21078;-71
2022/12/26 16:32:41;;;;;;;20.57;15.13;;;;;;;-0.06;100.00;100282.13;1713915;82;22118;-70
2022/12/26 16:35:25;;;;;;;21.37;14.80;;;;;;;0.03;100.00;100292.21;1703138;83;21074;-71
2022/12/26 16:37:53;;;;;;;20.52;15.13;;;;;;;0.06;100.00;100292.66;1712392;82;21074;-71
2022/12/26 16:40:29;;;;;;;21.40;15.55;;;;;;;0.02;100.00;100300.75;1711464;83;21035;-72
2022/12/26 16:43:20;;;;;;;22.45;16.07;;;;;;;0.00;100.00;100298.25;1713555;82;21118;-71
2022/12/26 16:45:49;;;;;;;26.82;18.70;;;;;;;0.08;100.00;100295.13;1703559;82;21400;-73
2022/12/26 16:48:18;;;;;;;26.85;18.57;;;;;;;0.11;100.00;100290.22;1710906;82;21584;-71
2022/12/26 16:50:55;;;;;;;23.75;17.48;;;;;;;0.11;100.00;100286.20;1724926;82;21065;-73
2022/12/26 16:53:39;;;;;;;23.83;16.23;;;;;;;0.12;100.00;100273.15;1728331;82;21051;-71
2022/12/26 16:56:26;;;;;;;24.18;16.75;;;;;;;0.11;100.00;100254.08;1683331;83;21070;-71
2022/12/26 16:58:58;;;;;;;23.27;17.30;;;;;;;0.09;100.00;100244.09;1708640;82;21086;-73
2022/12/26 17:01:25;;;;;;;27.85;19.60;;;;;;;0.06;100.00;100232.94;1702707;83;21078;-72
2022/12/26 17:05:30;;;;;;;26.48;22.45;;;;;;;-0.03;100.00;100219.67;1797592;78;28279;-73
2022/12/26 17:08:03;;;;;;;26.82;19.37;;;;;;;0.12;100.00;100221.45;1772914;80;21641;-73
2022/12/26 17:10:36;;;;;;;28.20;20.05;;;;;;;0.26;100.00;100221.88;1756008;80;22311;-71
2022/12/26 17:13:06;;;;;;;27.17;19.20;;;;;;;0.21;100.00;100225.16;1749060;82;21111;-73
2022/12/26 17:15:39;;;;;;;26.52;18.92;;;;;;;0.15;100.00;100215.20;1746804;82;21064;-74
2022/12/26 17:18:46;;;;;;;26.55;19.00;;;;;;;0.06;100.00;100210.18;1761915;80;20999;-73
2022/12/26 17:21:28;;;;;;;27.58;19.62;;;;;;;-0.01;100.00;100202.93;1752284;80;21010;-73
2022/12/26 17:24:24;;;;;;;26.52;18.40;;;;;;;-0.08;100.00;100194.52;1730615;81;21069;-74
2022/12/26 17:26:55;;;;;;;25.35;17.42;;;;;;;-0.11;100.00;100194.37;1749943;80;21017;-74
2022/12/26 17:29:47;;;;;;;28.38;20.20;;;;;;;-0.12;100.00;100180.69;1759005;80;21101;-73
2022/12/26 17:32:28;;;;;;;30.37;20.60;;;;;;;-0.13;100.00;100176.35;1754916;80;21080;-73
2022/12/26 17:35:06;;;;;;;26.87;17.80;;;;;;;-0.16;100.00;100174.57;1750299;80;21084;-73
2022/12/26 17:37:33;;;;;;;25.43;18.00;;;;;;;-0.15;100.00;100167.70;1752688;80;21102;-71
2022/12/26 17:40:23;;;;;;;25.48;17.27;;;;;;;-0.15;100.00;100174.89;1759849;80;21713;-72
2022/12/26 17:42:55;;;;;;;25.55;18.45;;;;;;;-0.16;100.00;100167.88;1750634;80;21532;-71
2022/12/26 17:45:24;;;;;;;25.70;17.65;;;;;;;-0.14;100.00;100153.78;1727549;80;20999;-71